sensor_id;sensor_type;location;lat;lon;timestamp;pressure;altitude;pressure_sealevel;temperature;humidity
36630;BME280;36256;42.154;23.002;2023-05-19T00:02:23;97375.25;;;13.88;100.00
36630;BME280;36256;42.154;23.002;2023-05-19T00:04:51;97381.72;;;13.70;100.00
36630;BME280;36256;42.154;23.002;2023-05-19T00:07:22;97383.88;;;13.75;100.00
36630;BME280;36256;42.154;23.002;2023-05-19T00:09:51;97370.09;;;13.77;100.00
36630;BME280;36256;42.154;23.002;2023-05-19T00:12:18;97372.72;;;13.90;100.00
36630;BME280;36256;42.154;23.002;2023-05-19T00:14:45;97364.44;;;13.95;99.53
36630;BME280;36256;42.154;23.002;2023-05-19T00:17:12;97360.06;;;13.85;99.07
36630;BME280;36256;42.154;23.002;2023-05-19T00:19:39;97359.91;;;13.89;98.54
36630;BME280;36256;42.154;23.002;2023-05-19T00:22:06;97360.06;;;13.85;97.75
36630;BME280;36256;42.154;23.002;2023-05-19T00:24:33;97357.28;;;13.76;97.41
36630;BME280;36256;42.154;23.002;2023-05-19T00:27:00;97364.94;;;13.85;97.37
36630;BME280;36256;42.154;23.002;2023-05-19T00:29:27;97363.84;;;13.82;96.21
36630;BME280;36256;42.154;23.002;2023-05-19T00:31:55;97369.78;;;13.84;94.49
36630;BME280;36256;42.154;23.002;2023-05-19T00:34:22;97362.22;;;13.90;94.27
36630;BME280;36256;42.154;23.002;2023-05-19T00:36:48;97360.69;;;13.89;92.13
36630;BME280;36256;42.154;23.002;2023-05-19T00:39:15;97370.06;;;13.95;90.61
36630;BME280;36256;42.154;23.002;2023-05-19T00:41:42;97361.88;;;14.06;90.34
36630;BME280;36256;42.154;23.002;2023-05-19T00:44:09;97368.44;;;14.12;88.00
36630;BME280;36256;42.154;23.002;2023-05-19T00:46:36;97361.84;;;14.15;89.47
36630;BME280;36256;42.154;23.002;2023-05-19T00:49:03;97367.13;;;14.23;86.30
36630;BME280;36256;42.154;23.002;2023-05-19T00:51:30;97359.63;;;14.29;85.70
36630;BME280;36256;42.154;23.002;2023-05-19T00:53:57;97357.88;;;14.31;87.17
36630;BME280;36256;42.154;23.002;2023-05-19T00:56:24;97367.44;;;14.34;86.78
36630;BME280;36256;42.154;23.002;2023-05-19T00:58:52;97362.41;;;14.38;86.99
36630;BME280;36256;42.154;23.002;2023-05-19T01:01:19;97370.19;;;14.43;87.15
36630;BME280;36256;42.154;23.002;2023-05-19T01:03:47;97345.16;;;14.27;86.38
36630;BME280;36256;42.154;23.002;2023-05-19T01:06:15;97358.38;;;14.30;86.51
36630;BME280;36256;42.154;23.002;2023-05-19T01:08:44;97363.22;;;14.29;87.34
36630;BME280;36256;42.154;23.002;2023-05-19T01:11:11;97364.31;;;14.32;88.08
36630;BME280;36256;42.154;23.002;2023-05-19T01:13:38;97356.47;;;14.36;87.85
36630;BME280;36256;42.154;23.002;2023-05-19T01:16:23;97358.50;;;14.35;87.17
36630;BME280;36256;42.154;23.002;2023-05-19T01:25:19;97356.88;;;14.43;88.13
36630;BME280;36256;42.154;23.002;2023-05-19T01:30:32;97355.84;;;14.23;91.03
36630;BME280;36256;42.154;23.002;2023-05-19T01:33:03;97346.91;;;14.24;91.91
36630;BME280;36256;42.154;23.002;2023-05-19T01:35:34;97350.81;;;14.27;91.27
36630;BME280;36256;42.154;23.002;2023-05-19T01:38:02;97351.75;;;14.24;91.62
36630;BME280;36256;42.154;23.002;2023-05-19T01:40:30;97350.91;;;14.08;92.03
36630;BME280;36256;42.154;23.002;2023-05-19T01:43:00;97357.47;;;14.14;91.79
36630;BME280;36256;42.154;23.002;2023-05-19T01:45:28;97358.44;;;14.02;92.50
36630;BME280;36256;42.154;23.002;2023-05-19T01:47:57;97361.91;;;13.97;92.29
36630;BME280;36256;42.154;23.002;2023-05-19T01:50:25;97360.19;;;14.00;92.29
36630;BME280;36256;42.154;23.002;2023-05-19T01:52:52;97364.06;;;14.02;93.54
36630;BME280;36256;42.154;23.002;2023-05-19T01:55:20;97358.63;;;13.90;92.49
36630;BME280;36256;42.154;23.002;2023-05-19T02:05:38;97369.09;;;13.98;93.81
36630;BME280;36256;42.154;23.002;2023-05-19T02:08:24;97365.03;;;13.99;94.09
36630;BME280;36256;42.154;23.002;2023-05-19T02:11:02;97363.94;;;13.97;94.80
36630;BME280;36256;42.154;23.002;2023-05-19T02:13:35;97363.63;;;13.95;95.02
36630;BME280;36256;42.154;23.002;2023-05-19T02:16:04;97356.28;;;13.88;96.63
36630;BME280;36256;42.154;23.002;2023-05-19T02:18:32;97363.34;;;13.84;96.85
36630;BME280;36256;42.154;23.002;2023-05-19T02:20:58;97361.94;;;13.79;97.64
36630;BME280;36256;42.154;23.002;2023-05-19T02:23:25;97360.41;;;13.78;98.41
36630;BME280;36256;42.154;23.002;2023-05-19T02:25:52;97359.94;;;13.71;98.58
36630;BME280;36256;42.154;23.002;2023-05-19T02:28:19;97362.44;;;13.69;98.46
36630;BME280;36256;42.154;23.002;2023-05-19T02:30:45;97352.44;;;13.59;98.40
36630;BME280;36256;42.154;23.002;2023-05-19T02:33:12;97364.81;;;13.52;98.15
36630;BME280;36256;42.154;23.002;2023-05-19T02:35:39;97365.16;;;13.45;98.67
36630;BME280;36256;42.154;23.002;2023-05-19T02:38:06;97370.16;;;13.41;99.12
36630;BME280;36256;42.154;23.002;2023-05-19T02:40:32;97366.41;;;13.35;100.00
36630;BME280;36256;42.154;23.002;2023-05-19T02:42:59;97380.97;;;13.33;100.00
36630;BME280;36256;42.154;23.002;2023-05-19T02:45:27;97367.34;;;13.23;100.00
36630;BME280;36256;42.154;23.002;2023-05-19T02:47:54;97362.63;;;13.02;100.00
36630;BME280;36256;42.154;23.002;2023-05-19T02:50:21;97366.22;;;13.02;100.00
36630;BME280;36256;42.154;23.002;2023-05-19T02:52:47;97371.25;;;12.98;100.00
36630;BME280;36256;42.154;23.002;2023-05-19T02:55:14;97364.22;;;13.03;100.00
36630;BME280;36256;42.154;23.002;2023-05-19T02:57:42;97367.94;;;13.00;100.00
36630;BME280;36256;42.154;23.002;2023-05-19T03:00:10;97371.38;;;12.95;100.00
36630;BME280;36256;42.154;23.002;2023-05-19T03:02:36;97370.59;;;12.85;100.00
36630;BME280;36256;42.154;23.002;2023-05-19T03:05:04;97369.34;;;12.86;100.00
36630;BME280;36256;42.154;23.002;2023-05-19T03:07:30;97373.25;;;12.89;100.00
36630;BME280;36256;42.154;23.002;2023-05-19T03:09:59;97384.84;;;12.91;100.00
36630;BME280;36256;42.154;23.002;2023-05-19T03:12:29;97376.69;;;12.93;100.00
36630;BME280;36256;42.154;23.002;2023-05-19T03:14:55;97369.69;;;12.88;100.00
36630;BME280;36256;42.154;23.002;2023-05-19T03:17:22;97376.38;;;12.82;100.00
36630;BME280;36256;42.154;23.002;2023-05-19T03:19:49;97379.84;;;12.86;100.00
36630;BME280;36256;42.154;23.002;2023-05-19T03:22:16;97380.47;;;12.90;100.00
36630;BME280;36256;42.154;23.002;2023-05-19T03:24:46;97382.97;;;12.88;100.00
36630;BME280;36256;42.154;23.002;2023-05-19T03:27:16;97377.31;;;12.79;100.00
36630;BME280;36256;42.154;23.002;2023-05-19T03:29:43;97376.06;;;12.71;100.00
36630;BME280;36256;42.154;23.002;2023-05-19T03:32:09;97383.22;;;12.63;100.00
36630;BME280;36256;42.154;23.002;2023-05-19T03:34:36;97383.34;;;12.59;100.00
36630;BME280;36256;42.154;23.002;2023-05-19T03:37:03;97373.53;;;12.63;100.00
36630;BME280;36256;42.154;23.002;2023-05-19T03:39:29;97369.75;;;12.57;100.00
36630;BME280;36256;42.154;23.002;2023-05-19T03:41:56;97365.47;;;12.35;100.00
36630;BME280;36256;42.154;23.002;2023-05-19T03:44:23;97372.50;;;12.30;100.00
36630;BME280;36256;42.154;23.002;2023-05-19T03:46:50;97372.50;;;12.30;100.00
36630;BME280;36256;42.154;23.002;2023-05-19T03:49:16;97377.53;;;12.35;100.00
36630;BME280;36256;42.154;23.002;2023-05-19T03:51:43;97377.09;;;12.46;100.00
36630;BME280;36256;42.154;23.002;2023-05-19T03:54:10;97378.81;;;12.52;100.00
36630;BME280;36256;42.154;23.002;2023-05-19T03:56:38;97384.16;;;12.59;100.00
36630;BME280;36256;42.154;23.002;2023-05-19T03:59:05;97386.81;;;12.63;100.00
36630;BME280;36256;42.154;23.002;2023-05-19T04:01:32;97393.41;;;12.69;100.00
36630;BME280;36256;42.154;23.002;2023-05-19T04:03:59;97399.22;;;12.75;100.00
36630;BME280;36256;42.154;23.002;2023-05-19T04:06:25;97403.91;;;12.78;100.00
36630;BME280;36256;42.154;23.002;2023-05-19T04:08:53;97403.44;;;12.79;100.00
36630;BME280;36256;42.154;23.002;2023-05-19T04:11:19;97397.03;;;12.97;100.00
36630;BME280;36256;42.154;23.002;2023-05-19T04:13:46;97391.41;;;12.97;100.00
36630;BME280;36256;42.154;23.002;2023-05-19T04:16:13;97387.72;;;13.09;100.00
36630;BME280;36256;42.154;23.002;2023-05-19T04:18:40;97380.38;;;13.11;99.74
36630;BME280;36256;42.154;23.002;2023-05-19T04:21:07;97387.09;;;13.23;99.72
36630;BME280;36256;42.154;23.002;2023-05-19T04:23:34;97376.75;;;13.29;98.92
36630;BME280;36256;42.154;23.002;2023-05-19T04:26:01;97385.50;;;13.40;98.76
36630;BME280;36256;42.154;23.002;2023-05-19T04:28:28;97382.69;;;13.49;97.10
36630;BME280;36256;42.154;23.002;2023-05-19T04:30:55;97373.59;;;13.54;96.57
36630;BME280;36256;42.154;23.002;2023-05-19T04:33:24;97374.81;;;13.62;96.12
36630;BME280;36256;42.154;23.002;2023-05-19T04:35:50;97373.09;;;13.65;96.00
36630;BME280;36256;42.154;23.002;2023-05-19T04:38:17;97365.44;;;13.56;95.91
36630;BME280;36256;42.154;23.002;2023-05-19T04:40:45;97365.13;;;13.54;97.33
36630;BME280;36256;42.154;23.002;2023-05-19T04:43:15;97371.69;;;13.60;95.84
36630;BME280;36256;42.154;23.002;2023-05-19T04:45:43;97370.44;;;13.70;94.60
36630;BME280;36256;42.154;23.002;2023-05-19T04:48:10;97378.09;;;13.79;94.02
36630;BME280;36256;42.154;23.002;2023-05-19T04:50:37;97372.78;;;13.81;94.77
36630;BME280;36256;42.154;23.002;2023-05-19T04:53:08;97376.03;;;13.88;94.74
36630;BME280;36256;42.154;23.002;2023-05-19T04:55:34;97367.88;;;13.90;94.77
36630;BME280;36256;42.154;23.002;2023-05-19T04:58:02;97379.81;;;13.85;95.25
36630;BME280;36256;42.154;23.002;2023-05-19T05:00:29;97377.63;;;13.80;94.86
36630;BME280;36256;42.154;23.002;2023-05-19T05:02:57;97380.28;;;13.84;94.29
36630;BME280;36256;42.154;23.002;2023-05-19T05:05:24;97383.13;;;13.75;95.45
36630;BME280;36256;42.154;23.002;2023-05-19T05:07:50;97387.19;;;13.83;95.90
36630;BME280;36256;42.154;23.002;2023-05-19T05:10:19;97387.31;;;13.88;94.73
36630;BME280;36256;42.154;23.002;2023-05-19T05:12:47;97392.47;;;13.99;94.70
36630;BME280;36256;42.154;23.002;2023-05-19T05:15:14;97392.59;;;14.04;93.66
36630;BME280;36256;42.154;23.002;2023-05-19T05:17:42;97391.03;;;14.12;93.40
36630;BME280;36256;42.154;23.002;2023-05-19T05:20:09;97377.09;;;14.00;92.84
36630;BME280;36256;42.154;23.002;2023-05-19T05:22:37;97367.84;;;14.08;93.29
36630;BME280;36256;42.154;23.002;2023-05-19T05:25:05;97386.28;;;14.18;92.53
36630;BME280;36256;42.154;23.002;2023-05-19T05:27:32;97407.56;;;14.38;92.43
36630;BME280;36256;42.154;23.002;2023-05-19T05:29:59;97404.69;;;14.47;93.17
36630;BME280;36256;42.154;23.002;2023-05-19T05:32:26;97398.97;;;14.65;91.60
36630;BME280;36256;42.154;23.002;2023-05-19T05:34:53;97403.91;;;14.79;91.29
36630;BME280;36256;42.154;23.002;2023-05-19T05:37:19;97399.34;;;15.05;87.95
36630;BME280;36256;42.154;23.002;2023-05-19T05:39:46;97407.25;;;15.39;86.27
36630;BME280;36256;42.154;23.002;2023-05-19T05:42:13;97398.97;;;15.74;84.30
36630;BME280;36256;42.154;23.002;2023-05-19T05:44:39;97390.94;;;16.31;82.24
36630;BME280;36256;42.154;23.002;2023-05-19T05:47:07;97393.25;;;16.96;77.08
36630;BME280;36256;42.154;23.002;2023-05-19T05:49:33;97379.94;;;17.63;73.54
36630;BME280;36256;42.154;23.002;2023-05-19T05:52:04;97388.84;;;18.01;71.98
36630;BME280;36256;42.154;23.002;2023-05-19T05:54:32;97379.31;;;18.61;69.10
36630;BME280;36256;42.154;23.002;2023-05-19T05:56:59;97382.22;;;19.15;65.84
36630;BME280;36256;42.154;23.002;2023-05-19T05:59:27;97380.84;;;19.47;62.82
36630;BME280;36256;42.154;23.002;2023-05-19T06:01:54;97379.38;;;19.68;61.56
36630;BME280;36256;42.154;23.002;2023-05-19T06:04:21;97383.91;;;20.24;59.77
36630;BME280;36256;42.154;23.002;2023-05-19T06:06:48;97388.50;;;20.05;59.58
36630;BME280;36256;42.154;23.002;2023-05-19T06:09:14;97378.91;;;20.03;59.43
36630;BME280;36256;42.154;23.002;2023-05-19T06:11:41;97383.81;;;19.86;60.94
36630;BME280;36256;42.154;23.002;2023-05-19T06:14:08;97389.22;;;19.78;59.97
36630;BME280;36256;42.154;23.002;2023-05-19T06:16:35;97387.53;;;20.30;58.57
36630;BME280;36256;42.154;23.002;2023-05-19T06:19:01;97387.19;;;20.06;60.28
36630;BME280;36256;42.154;23.002;2023-05-19T06:21:28;97385.72;;;20.33;58.86
36630;BME280;36256;42.154;23.002;2023-05-19T06:23:55;97396.28;;;20.10;58.57
36630;BME280;36256;42.154;23.002;2023-05-19T06:26:21;97388.50;;;20.11;59.87
36630;BME280;36256;42.154;23.002;2023-05-19T06:28:48;97401.47;;;20.17;59.59
36630;BME280;36256;42.154;23.002;2023-05-19T06:31:15;97410.81;;;20.23;59.75
36630;BME280;36256;42.154;23.002;2023-05-19T06:33:41;97400.22;;;20.52;59.08
36630;BME280;36256;42.154;23.002;2023-05-19T06:36:08;97397.09;;;21.05;57.68
36630;BME280;36256;42.154;23.002;2023-05-19T06:38:36;97386.69;;;21.02;56.76
36630;BME280;36256;42.154;23.002;2023-05-19T06:41:02;97387.75;;;20.77;56.19
36630;BME280;36256;42.154;23.002;2023-05-19T06:43:29;97386.75;;;20.80;57.18
36630;BME280;36256;42.154;23.002;2023-05-19T06:45:56;97391.28;;;21.38;57.06
36630;BME280;36256;42.154;23.002;2023-05-19T06:48:22;97387.13;;;21.97;55.11
36630;BME280;36256;42.154;23.002;2023-05-19T06:50:49;97384.25;;;21.97;55.32
36630;BME280;36256;42.154;23.002;2023-05-19T06:53:18;97388.47;;;21.90;53.96
36630;BME280;36256;42.154;23.002;2023-05-19T06:55:45;97397.56;;;21.88;57.08
36630;BME280;36256;42.154;23.002;2023-05-19T06:58:23;97391.38;;;21.79;55.48
36630;BME280;36256;42.154;23.002;2023-05-19T07:00:50;97400.88;;;21.35;57.41
36630;BME280;36256;42.154;23.002;2023-05-19T07:03:17;97397.31;;;21.18;57.96
36630;BME280;36256;42.154;23.002;2023-05-19T07:05:44;97386.88;;;21.37;55.56
36630;BME280;36256;42.154;23.002;2023-05-19T07:08:10;97394.66;;;21.37;58.16
36630;BME280;36256;42.154;23.002;2023-05-19T07:10:37;97388.97;;;21.31;56.38
36630;BME280;36256;42.154;23.002;2023-05-19T07:13:04;97373.88;;;21.42;54.77
36630;BME280;36256;42.154;23.002;2023-05-19T07:15:31;97390.13;;;21.63;55.14
36630;BME280;36256;42.154;23.002;2023-05-19T07:17:57;97394.81;;;21.66;57.46
36630;BME280;36256;42.154;23.002;2023-05-19T07:20:24;97386.97;;;21.72;56.90
36630;BME280;36256;42.154;23.002;2023-05-19T07:22:51;97399.09;;;21.95;57.02
36630;BME280;36256;42.154;23.002;2023-05-19T07:25:18;97393.38;;;21.95;57.66
36630;BME280;36256;42.154;23.002;2023-05-19T07:27:44;97390.72;;;21.51;56.21
36630;BME280;36256;42.154;23.002;2023-05-19T07:30:11;97385.88;;;21.24;57.19
36630;BME280;36256;42.154;23.002;2023-05-19T07:32:38;97393.59;;;21.40;58.36
36630;BME280;36256;42.154;23.002;2023-05-19T07:35:05;97388.66;;;21.40;57.99
36630;BME280;36256;42.154;23.002;2023-05-19T07:37:32;97395.00;;;21.74;56.19
36630;BME280;36256;42.154;23.002;2023-05-19T07:39:59;97394.16;;;21.96;58.82
36630;BME280;36256;42.154;23.002;2023-05-19T07:42:25;97386.03;;;22.05;58.15
36630;BME280;36256;42.154;23.002;2023-05-19T07:44:52;97395.50;;;22.30;56.35
36630;BME280;36256;42.154;23.002;2023-05-19T07:47:19;97394.69;;;21.88;56.94
36630;BME280;36256;42.154;23.002;2023-05-19T07:49:45;97389.47;;;21.93;56.85
36630;BME280;36256;42.154;23.002;2023-05-19T07:52:16;97388.88;;;22.11;59.00
36630;BME280;36256;42.154;23.002;2023-05-19T07:54:44;97389.47;;;21.93;56.61
36630;BME280;36256;42.154;23.002;2023-05-19T07:57:10;97394.22;;;21.73;58.39
36630;BME280;36256;42.154;23.002;2023-05-19T07:59:37;97390.56;;;21.90;58.23
36630;BME280;36256;42.154;23.002;2023-05-19T08:02:04;97389.28;;;21.79;57.03
36630;BME280;36256;42.154;23.002;2023-05-19T08:04:32;97365.25;;;21.58;57.75
36630;BME280;36256;42.154;23.002;2023-05-19T08:06:58;97398.69;;;21.69;59.47
36630;BME280;36256;42.154;23.002;2023-05-19T08:09:25;97390.66;;;21.56;57.85
36630;BME280;36256;42.154;23.002;2023-05-19T08:11:52;97381.59;;;21.52;59.29
36630;BME280;36256;42.154;23.002;2023-05-19T08:14:19;97390.97;;;21.53;58.86
36630;BME280;36256;42.154;23.002;2023-05-19T08:16:48;97396.91;;;21.60;59.55
36630;BME280;36256;42.154;23.002;2023-05-19T08:19:15;97390.75;;;21.40;58.37
36630;BME280;36256;42.154;23.002;2023-05-19T08:21:42;97392.75;;;21.61;59.98
36630;BME280;36256;42.154;23.002;2023-05-19T08:24:10;97391.88;;;21.83;63.41
36630;BME280;36256;42.154;23.002;2023-05-19T08:26:37;97394.22;;;21.73;58.08
36630;BME280;36256;42.154;23.002;2023-05-19T08:29:03;97394.88;;;22.02;62.19
36630;BME280;36256;42.154;23.002;2023-05-19T08:31:30;97388.88;;;22.05;59.70
36630;BME280;36256;42.154;23.002;2023-05-19T08:33:57;97389.19;;;22.02;59.27
36630;BME280;36256;42.154;23.002;2023-05-19T08:36:23;97385.09;;;22.27;58.00
36630;BME280;36256;42.154;23.002;2023-05-19T08:38:51;97389.19;;;22.37;58.36
36630;BME280;36256;42.154;23.002;2023-05-19T08:41:17;97394.16;;;22.36;60.04
36630;BME280;36256;42.154;23.002;2023-05-19T08:43:44;97387.25;;;22.50;57.70
36630;BME280;36256;42.154;23.002;2023-05-19T08:46:12;97376.13;;;22.47;56.11
36630;BME280;36256;42.154;23.002;2023-05-19T08:48:41;97376.88;;;22.47;59.47
36630;BME280;36256;42.154;23.002;2023-05-19T08:51:35;97385.84;;;22.68;58.15
36630;BME280;36256;42.154;23.002;2023-05-19T08:54:13;97381.56;;;22.80;58.06
36630;BME280;36256;42.154;23.002;2023-05-19T08:56:44;97380.72;;;22.85;57.11
36630;BME280;36256;42.154;23.002;2023-05-19T08:59:15;97380.50;;;22.83;58.68
36630;BME280;36256;42.154;23.002;2023-05-19T09:01:44;97370.22;;;22.69;56.86
36630;BME280;36256;42.154;23.002;2023-05-19T09:04:15;97369.75;;;22.65;57.36
36630;BME280;36256;42.154;23.002;2023-05-19T09:06:42;97364.78;;;22.95;57.31
36630;BME280;36256;42.154;23.002;2023-05-19T09:09:10;97356.91;;;23.01;54.39
36630;BME280;36256;42.154;23.002;2023-05-19T09:11:37;97368.56;;;23.27;57.10
36630;BME280;36256;42.154;23.002;2023-05-19T09:14:04;97367.88;;;23.46;57.73
36630;BME280;36256;42.154;23.002;2023-05-19T09:16:31;97370.91;;;23.53;57.15
36630;BME280;36256;42.154;23.002;2023-05-19T09:18:59;97349.31;;;23.71;57.56
36630;BME280;36256;42.154;23.002;2023-05-19T09:21:28;97357.53;;;23.80;57.48
36630;BME280;36256;42.154;23.002;2023-05-19T09:24:03;97353.44;;;23.57;55.03
36630;BME280;36256;42.154;23.002;2023-05-19T09:26:39;97343.50;;;23.58;55.14
36630;BME280;36256;42.154;23.002;2023-05-19T09:29:16;97353.47;;;23.70;59.57
36630;BME280;36256;42.154;23.002;2023-05-19T09:31:53;97349.31;;;23.71;54.22
36630;BME280;36256;42.154;23.002;2023-05-19T09:34:21;97350.66;;;23.88;56.16
36630;BME280;36256;42.154;23.002;2023-05-19T09:36:51;97344.38;;;23.90;52.19
36630;BME280;36256;42.154;23.002;2023-05-19T09:39:21;97333.59;;;23.59;52.80
36630;BME280;36256;42.154;23.002;2023-05-19T09:41:52;97348.44;;;23.57;56.73
36630;BME280;36256;42.154;23.002;2023-05-19T09:44:25;97334.22;;;23.52;56.35
36630;BME280;36256;42.154;23.002;2023-05-19T09:46:55;97335.50;;;23.51;55.01
36630;BME280;36256;42.154;23.002;2023-05-19T09:49:27;97329.59;;;23.24;56.43
36630;BME280;36256;42.154;23.002;2023-05-19T09:52:01;97322.44;;;23.12;52.38
36630;BME280;36256;42.154;23.002;2023-05-19T09:54:29;97325.59;;;23.33;55.02
36630;BME280;36256;42.154;23.002;2023-05-19T09:56:59;97325.94;;;23.67;53.20
36630;BME280;36256;42.154;23.002;2023-05-19T09:59:27;97335.22;;;23.91;54.87
36630;BME280;36256;42.154;23.002;2023-05-19T10:01:58;97340.44;;;24.11;54.00
36630;BME280;36256;42.154;23.002;2023-05-19T10:04:27;97325.31;;;24.11;51.21
36630;BME280;36256;42.154;23.002;2023-05-19T10:06:54;97323.00;;;24.09;52.60
36630;BME280;36256;42.154;23.002;2023-05-19T10:09:27;97317.06;;;24.02;52.11
36630;BME280;36256;42.154;23.002;2023-05-19T10:11:55;97319.72;;;24.00;52.23
36630;BME280;36256;42.154;23.002;2023-05-19T10:14:24;97309.50;;;23.86;52.43
36630;BME280;36256;42.154;23.002;2023-05-19T10:16:52;97302.56;;;23.63;48.35
36630;BME280;36256;42.154;23.002;2023-05-19T10:19:21;97305.97;;;23.80;52.20
36630;BME280;36256;42.154;23.002;2023-05-19T10:21:49;97302.22;;;23.85;52.75
36630;BME280;36256;42.154;23.002;2023-05-19T10:24:16;97301.75;;;23.81;52.02
36630;BME280;36256;42.154;23.002;2023-05-19T10:29:19;97293.28;;;23.57;50.48
36630;BME280;36256;42.154;23.002;2023-05-19T10:31:49;97298.38;;;23.64;53.02
36630;BME280;36256;42.154;23.002;2023-05-19T10:37:33;97287.69;;;23.46;52.60
36630;BME280;36256;42.154;23.002;2023-05-19T10:40:11;97283.19;;;23.69;49.72
36630;BME280;36256;42.154;23.002;2023-05-19T10:42:56;97276.69;;;23.50;47.86
36630;BME280;36256;42.154;23.002;2023-05-19T10:45:29;97287.84;;;23.53;52.70
36630;BME280;36256;42.154;23.002;2023-05-19T10:48:00;97295.41;;;23.51;52.41
36630;BME280;36256;42.154;23.002;2023-05-19T10:50:34;97277.78;;;23.47;53.25
36630;BME280;36256;42.154;23.002;2023-05-19T10:53:02;97279.31;;;23.48;51.97
36630;BME280;36256;42.154;23.002;2023-05-19T10:55:44;97297.13;;;23.40;51.94
36630;BME280;36256;42.154;23.002;2023-05-19T10:58:12;97302.69;;;23.52;54.54
36630;BME280;36256;42.154;23.002;2023-05-19T11:00:39;97294.25;;;23.40;52.67
36630;BME280;36256;42.154;23.002;2023-05-19T11:03:16;97305.19;;;23.42;53.09
36630;BME280;36256;42.154;23.002;2023-05-19T11:05:44;97305.66;;;23.46;53.36
36630;BME280;36256;42.154;23.002;2023-05-19T11:08:11;97302.84;;;23.40;52.91
36630;BME280;36256;42.154;23.002;2023-05-19T11:10:42;97297.22;;;23.29;52.64
36630;BME280;36256;42.154;23.002;2023-05-19T11:13:17;97304.03;;;23.26;51.43
36630;BME280;36256;42.154;23.002;2023-05-19T11:15:45;97302.38;;;23.36;52.51
36630;BME280;36256;42.154;23.002;2023-05-19T11:18:13;97304.56;;;23.49;48.97
36630;BME280;36256;42.154;23.002;2023-05-19T11:20:41;97295.41;;;23.51;48.64
36630;BME280;36256;42.154;23.002;2023-05-19T11:23:14;97299.69;;;23.20;50.28
36630;BME280;36256;42.154;23.002;2023-05-19T11:25:48;97304.94;;;22.97;51.03
36630;BME280;36256;42.154;23.002;2023-05-19T11:28:16;97297.03;;;23.03;50.26
36630;BME280;36256;42.154;23.002;2023-05-19T11:30:46;97293.59;;;23.10;51.43
36630;BME280;36256;42.154;23.002;2023-05-19T11:33:16;97290.56;;;23.21;52.97
36630;BME280;36256;42.154;23.002;2023-05-19T11:35:46;97296.53;;;23.23;54.97
36630;BME280;36256;42.154;23.002;2023-05-19T11:38:15;97296.59;;;23.18;54.60
36630;BME280;36256;42.154;23.002;2023-05-19T11:40:43;97289.28;;;23.22;52.35
36630;BME280;36256;42.154;23.002;2023-05-19T11:43:10;97280.41;;;23.02;49.07
36630;BME280;36256;42.154;23.002;2023-05-19T11:45:37;97248.75;;;22.94;48.27
36630;BME280;36256;42.154;23.002;2023-05-19T11:48:04;97260.06;;;23.05;50.05
36630;BME280;36256;42.154;23.002;2023-05-19T11:50:32;97245.19;;;22.88;48.23
36630;BME280;36256;42.154;23.002;2023-05-19T11:53:00;97246.38;;;22.98;48.06
36630;BME280;36256;42.154;23.002;2023-05-19T11:55:28;97245.53;;;23.03;49.55
36630;BME280;36256;42.154;23.002;2023-05-19T11:57:59;97244.94;;;23.10;49.81
36630;BME280;36256;42.154;23.002;2023-05-19T12:00:35;97233.25;;;23.08;47.57
36630;BME280;36256;42.154;23.002;2023-05-19T12:03:03;97249.41;;;23.24;52.17
36630;BME280;36256;42.154;23.002;2023-05-19T12:05:31;97250.00;;;23.42;50.24
36630;BME280;36256;42.154;23.002;2023-05-19T12:08:04;97240.47;;;23.52;49.61
36630;BME280;36256;42.154;23.002;2023-05-19T12:10:31;97243.09;;;23.69;51.64
36630;BME280;36256;42.154;23.002;2023-05-19T12:13:00;97226.03;;;23.76;44.99
36630;BME280;36256;42.154;23.002;2023-05-19T12:15:27;97240.75;;;23.86;48.11
36630;BME280;36256;42.154;23.002;2023-05-19T12:17:58;97238.31;;;23.90;49.75
36630;BME280;36256;42.154;23.002;2023-05-19T12:20:27;97215.25;;;23.82;46.06
36630;BME280;36256;42.154;23.002;2023-05-19T12:22:55;97222.66;;;23.91;47.46
36630;BME280;36256;42.154;23.002;2023-05-19T12:25:22;97229.72;;;24.08;52.77
36630;BME280;36256;42.154;23.002;2023-05-19T12:27:49;97221.00;;;24.14;48.48
36630;BME280;36256;42.154;23.002;2023-05-19T12:30:24;97223.03;;;24.32;48.69
36630;BME280;36256;42.154;23.002;2023-05-19T12:32:52;97212.44;;;24.27;45.67
36630;BME280;36256;42.154;23.002;2023-05-19T12:35:19;97220.59;;;24.23;48.64
36630;BME280;36256;42.154;23.002;2023-05-19T12:37:48;97210.00;;;24.18;49.75
36630;BME280;36256;42.154;23.002;2023-05-19T12:40:16;97211.53;;;24.19;48.95
36630;BME280;36256;42.154;23.002;2023-05-19T12:42:46;97218.16;;;24.27;49.08
36630;BME280;36256;42.154;23.002;2023-05-19T12:45:14;97216.81;;;24.15;46.34
36630;BME280;36256;42.154;23.002;2023-05-19T12:47:40;97198.88;;;23.96;47.81
36630;BME280;36256;42.154;23.002;2023-05-19T12:50:08;97214.50;;;24.13;46.07
36630;BME280;36256;42.154;23.002;2023-05-19T12:52:44;97204.72;;;24.22;50.14
36630;BME280;36256;42.154;23.002;2023-05-19T12:55:11;97194.38;;;24.32;47.82
36630;BME280;36256;42.154;23.002;2023-05-19T12:57:42;97203.97;;;24.61;47.58
36630;BME280;36256;42.154;23.002;2023-05-19T13:00:17;97219.34;;;24.89;51.03
36630;BME280;36256;42.154;23.002;2023-05-19T13:03:06;97210.97;;;25.05;45.50
36630;BME280;36256;42.154;23.002;2023-05-19T13:05:37;97195.50;;;24.94;43.39
36630;BME280;36256;42.154;23.002;2023-05-19T13:08:05;97184.13;;;24.76;43.43
36630;BME280;36256;42.154;23.002;2023-05-19T13:10:34;97192.53;;;24.74;43.37
36630;BME280;36256;42.154;23.002;2023-05-19T13:13:01;97193.94;;;24.67;43.27
36630;BME280;36256;42.154;23.002;2023-05-19T13:15:30;97214.69;;;24.60;46.96
36630;BME280;36256;42.154;23.002;2023-05-19T13:18:01;97228.13;;;24.52;47.47